Nearby METAR Reports

 

KSJC - San Jose, California, USA
Distance from station: NE 9mi, 14km
Updated: Fri, 15-Nov-2019 9:53am PST
Partly cloudy
Partly cloudy
 Wind from calm
Wind: Calm
Temperature: 63°F , 17°C
Dew Point: 48°F , 9°C
Humidity: 59%
Barometer: 30.22 inHg , 1023.4 hPa
Clouds: Partly cloudy
Visibility: 10 miles , 16 km
Cloud details: Few Clouds 1800 ft
Few Clouds 2800 ft
Partly cloudy 11000 ft
2019/11/15 17:53 KSJC 151753Z 00000KT 10SM FEW018 FEW028 SCT110 17/09 A3022 RMK AO2 SLP233 T01670094 10167 20133 51013
KNUQ - Moffett Nas/Mtn, California, USA
Distance from station: N 9mi, 14km
Updated: Fri, 15-Nov-2019 9:56am PST

 
Barometer: 30.23 inHg , 1023.7 hPa
2019/11/15 17:56 KNUQ 151756Z A3023 RMK AO2 SLP241 51014 PWINO $
KPAO - Palo Alto, California, USA
Distance from station: NNW 14mi, 23km
Updated: Fri, 15-Nov-2019 9:47am PST
Partly cloudy
Partly cloudy
 Wind from varies
Wind: varies 3 mph , 6 km/h
Temperature: 61°F , 16°C
Dew Point: 52°F , 11°C
Humidity: 72%
Barometer: 30.23 inHg , 1023.7 hPa
Clouds: Partly cloudy
Visibility: 10 miles , 16 km
Cloud details: Partly cloudy 2000 ft
2019/11/15 17:47 KPAO 151747Z VRB03KT 10SM SCT020 16/11 A3023
 
KRHV - San Jose/Reid, California, USA
Distance from station: ENE 12mi, 19km
Updated: Fri, 15-Nov-2019 9:47am PST
Few Clouds
Few Clouds
 Wind from W
Wind: W 6 mph , 9 km/h
Temperature: 61°F , 16°C
Dew Point: 50°F , 10°C
Humidity: 68%
Barometer: 30.23 inHg , 1023.7 hPa
Clouds: Few Clouds
Visibility: 10 miles , 16 km
Cloud details: Few Clouds 3500 ft
2019/11/15 17:47 KRHV 151747Z 26005KT 10SM FEW035 16/10 A3023
KOAK - Oakland, California, USA
Distance from station: NNW 31mi, 50km
Updated: Fri, 15-Nov-2019 9:53am PST
Mostly cloudy
Mostly cloudy
 Wind from SW
Wind: SW 5 mph , 7 km/h
Temperature: 61°F , 16°C
Dew Point: 52°F , 11°C
Humidity: 72%
Barometer: 30.23 inHg , 1023.7 hPa
Clouds: Mostly cloudy
Visibility: 10 miles , 16 km
Cloud details: Partly cloudy 1700 ft
Mostly cloudy 2800 ft
2019/11/15 17:53 KOAK 151753Z 23004KT 10SM SCT017 BKN028 16/11 A3023 RMK AO2 SLP237 T01560106 10161 20122 51012
KSQL - San Carlos Airpo, California, USA
Distance from station: NW 21mi, 34km
Updated: Fri, 15-Nov-2019 9:47am PST
Mostly cloudy
Mostly cloudy
 Wind from varies
Wind: varies 3 mph , 6 km/h
Temperature: 59°F , 15°C
Dew Point: 54°F , 12°C
Humidity: 82%
Barometer: 30.24 inHg , 1024 hPa
Clouds: Mostly cloudy
Visibility: 10 miles , 16 km
Cloud details: Mostly cloudy 2700 ft
2019/11/15 17:47 KSQL 151747Z VRB03KT 10SM BKN027 15/12 A3024
 
KSFO - San Francisco, California, USA
Distance from station: NW 30mi, 49km
Updated: Fri, 15-Nov-2019 9:56am PST
Mostly cloudy
Mostly cloudy
 Wind from calm
Wind: Calm
Temperature: 61°F , 16°C
Dew Point: 52°F , 11°C
Humidity: 72%
Barometer: 30.23 inHg , 1023.7 hPa
Clouds: Mostly cloudy
Visibility: 10 miles , 16 km
Cloud details: Few Clouds 1800 ft
Mostly cloudy 2700 ft
2019/11/15 17:56 KSFO 151756Z 00000KT 10SM FEW018 BKN027 16/11 A3023 RMK AO2 SLP235 T01610106 10161 20128 51008
KE16 - San Martin, California, USA
Distance from station: ESE 27mi, 43km
Updated: Thu, 14-Nov-2019 1:35am PST
NOT Current
Overcast
Overcast
 Wind from SE
Wind: SE 7 mph , 11 km/h
Temperature: 54°F , 12°C
Dew Point: 50°F , 10°C
Humidity: 88%
Barometer: 30.05 inHg , 1017.6 hPa
Clouds: Overcast
Visibility: 10 miles , 16 km
Cloud details: Overcast 1400 ft
2019/11/14 09:35 KE16 140935Z AUTO 13006KT 10SM OVC014 12/10 A3005 RMK AO2
KWVI - Watsonville, California, USA
Distance from station: SSE 27mi, 44km
Updated: Fri, 15-Nov-2019 9:53am PST
Clear
Clear
 Wind from calm
Wind: Calm
Temperature: 63°F , 17°C
Dew Point: 52°F , 11°C
Humidity: 68%
Barometer: 30.22 inHg , 1023.4 hPa
Clouds: Clear
Visibility: 10 miles , 16 km
2019/11/15 17:53 KWVI 151753Z AUTO 00000KT 10SM CLR 17/11 A3022 RMK AO2 SLP234 T01670111 10167 20100 51010
 
KHAF - Half Moon Bay, California, USA
Distance from station: WNW 31mi, 50km
Updated: Fri, 15-Nov-2019 10:20am PST
Overcast
Overcast
 Wind from NW
Wind: NW 8 mph , 13 km/h
Temperature: 57°F , 14°C
Dew Point: 54°F , 12°C
Humidity: 88%
Barometer: 30.24 inHg , 1024 hPa
Clouds: Overcast
Visibility: 9 miles , 14 km
Cloud details: Mostly cloudy 2100 ft
Overcast 3700 ft
2019/11/15 18:20 KHAF 151820Z AUTO 31007KT 9SM BKN021 OVC037 14/12 A3024 RMK AO2
KHWD - Hayward, California, USA
Distance from station: N 28mi, 44km
Updated: Fri, 15-Nov-2019 9:54am PST
Partly cloudy
Partly cloudy
 Wind from WNW
Wind: WNW 5 mph , 7 km/h
Temperature: 61°F , 16°C
Dew Point: 52°F , 11°C
Humidity: 72%
Barometer: 30.23 inHg , 1023.7 hPa
Clouds: Partly cloudy
Visibility: 10 miles , 16 km
Cloud details: Partly cloudy 1900 ft
2019/11/15 17:54 KHWD 151754Z 29004KT 10SM SCT019 16/11 A3023 RMK AO2 SLP245 T01610106 10161 20122 51008
KLVK - Livermore, California, USA
Distance from station: NNE 31mi, 51km
Updated: Fri, 15-Nov-2019 9:53am PST
Clear
Clear
 Wind from varies
Wind: varies 3 mph , 6 km/h
Temperature: 59°F , 15°C
Dew Point: 50°F , 10°C
Humidity: 72%
Barometer: 30.22 inHg , 1023.4 hPa
Clouds: Clear
Visibility: 10 miles , 16 km
2019/11/15 17:53 KLVK 151753Z VRB03KT 10SM CLR 15/10 A3022 RMK AO2 SLP230 T01500100 10156 20111 51012